Home   Weather   USA   Talladega   Past weeks
Flag for USA

Past Weather in Talladega, Alabama, USA — Yesterday and Last 2 Weeks

Currently: 77 °F. Scattered clouds. (Weather station: Talladega Municipal Airport, USA). See more current weather

Past Weather in Talladega — Graph

°F

Talladega Temperature Yesterday

Maximum temperature yesterday: 86 °F (at 2:15 pm)
Minimum temperature yesterday: 72 °F (at 12:15 am)
Average temperature yesterday: 75 °F

High & Low Weather Summary for the Past Weeks

 TemperatureHumidityPressure
High99 °F (Jul 13, 1:35 pm)100% (Jul 6, 8:35 pm)30.20 "Hg (Jul 6, 8:35 pm)
Low66 °F (Jul 11, 2:15 am)25% (Jul 12, 2:55 pm)29.88 "Hg (Jul 9, 4:15 pm)
Average80 °F77%30.03 "Hg
* Reported Jul 6 6:15 pm — Jul 21 6:35 pm, Talladega. Weather by CustomWeather, © 2024

Note: Actual official high and low records may vary slightly from our data, if they occured in-between our weather recording intervals... More about our weather records

Talladega Weather History for the Previous 24 Hours

Scroll right to see more
 ConditionsComfort  
Time TempWeatherWind HumidityBarometerVisibility
6:35 pm
Sun, Jul 21
77 °FPartly sunny.5 mph94%30.00 "Hg10 mi
6:15 pm79 °FScattered clouds.5 mph94%30.00 "Hg10 mi
5:55 pm79 °FBroken clouds.6 mph94%30.00 "Hg10 mi
5:35 pm79 °FLow clouds.6 mph94%30.01 "Hg10 mi
4:55 pm79 °FScattered clouds.2 mph94%30.00 "Hg10 mi
4:15 pm79 °FSunny.5 mph89%29.99 "Hg10 mi
3:55 pm77 °FSunny.3 mph94%29.98 "Hg10 mi
3:35 pm77 °FThundershowers. Sunny.3 mph94%29.99 "Hg10 mi
2:55 pm77 °FSunny.2 mph94%30.01 "Hg10 mi
1:55 pm77 °FThundershowers. Sunny.6 mph94%30.03 "Hg10 mi
1:35 pm77 °FLight rain. Fog.5 mph94%30.03 "Hg7 mi
1:15 pm79 °FSunny.8 mph89%30.04 "Hg10 mi
12:55 pm79 °FThundershowers. Sunny.7 mph89%30.04 "Hg10 mi
12:15 pm81 °FThundershowers. Scattered clouds.7 mph84%30.04 "Hg10 mi
11:55 am82 °FThundershowers. Scattered clouds.5 mph84%30.04 "Hg10 mi
10:55 am82 °FPartly sunny.1 mph79%30.06 "Hg10 mi
10:35 am82 °FBroken clouds.3 mph79%30.06 "Hg10 mi
10:15 am81 °FLow clouds.2 mph84%30.06 "Hg10 mi
9:55 am81 °FCloudy.6 mph89%30.06 "Hg10 mi
9:15 am79 °FCloudy.No wind89%30.06 "Hg10 mi
8:55 am79 °FThundershowers. More clouds than sun.2 mph94%30.07 "Hg9 mi
8:15 am77 °FThundershowers. More clouds than sun.3 mph100%30.07 "Hg8 mi
7:55 am77 °FThundershowers. Low clouds.No wind100%30.06 "Hg8 mi
6:55 am75 °FLow clouds.2 mph100%30.05 "Hg7 mi
6:35 am75 °FFog.2 mph100%30.05 "Hg6 mi
6:15 am77 °FWarm.2 mph94%30.05 "Hg10 mi
5:55 am77 °FDrizzle. Fog.5 mph94%30.05 "Hg5 mi
5:35 am75 °FLight rain. Fog.2 mph100%30.04 "Hg1 mi
5:15 am75 °FOvercast.2 mph100%30.04 "Hg10 mi
4:55 am77 °FLow clouds.2 mph94%30.04 "Hg10 mi
4:35 am75 °FMostly cloudy.No wind100%30.03 "Hg10 mi
4:15 am75 °FMostly cloudy.1 mph100%30.03 "Hg10 mi
3:55 am77 °FLow clouds.3 mph94%30.04 "Hg10 mi
3:15 am75 °FLight rain. Partly cloudy.2 mph100%30.04 "Hg10 mi
2:55 am75 °FMostly cloudy.3 mph100%30.04 "Hg10 mi
2:15 am75 °FOvercast.1 mph100%30.04 "Hg10 mi
1:55 am75 °FMostly cloudy.1 mph100%30.04 "Hg10 mi
1:15 am75 °FMostly cloudy.1 mph100%30.05 "Hg10 mi
12:55 am77 °FMostly cloudy.2 mph94%30.06 "Hg10 mi
12:35 am75 °FOvercast.2 mph100%30.06 "Hg10 mi
12:15 am75 °FOvercast.No wind100%30.06 "Hg10 mi
11:55 pm
Sat, Jul 20
75 °FMostly cloudy.2 mph100%30.06 "Hg10 mi
11:35 pm75 °FMostly cloudy.2 mph100%30.06 "Hg10 mi
10:55 pm75 °FMostly cloudy.1 mph100%30.06 "Hg10 mi
10:35 pm75 °FMostly cloudy.2 mph100%30.06 "Hg10 mi
10:15 pm75 °FMostly cloudy.5 mph100%30.07 "Hg10 mi
9:55 pm75 °FMostly cloudy.5 mph94%30.07 "Hg10 mi
9:35 pm75 °FPassing clouds.1 mph94%30.06 "Hg10 mi
9:15 pm75 °FPassing clouds.2 mph94%30.06 "Hg10 mi
8:55 pm75 °FPassing clouds.1 mph94%30.05 "Hg10 mi
8:35 pm77 °FPartly cloudy.3 mph94%30.04 "Hg10 mi
8:15 pm77 °FLight rain. Overcast.3 mph94%30.04 "Hg10 mi
7:55 pm77 °FOvercast.2 mph94%30.05 "Hg10 mi
7:35 pm77 °FMore clouds than sun.2 mph89%30.04 "Hg10 mi
Weather by CustomWeather, © 2024

See weather overview